sensor_id;sensor_type;location;lat;lon;timestamp;P1;durP1;ratioP1;P2;durP2;ratioP2
20245;SDS011;10281;54.406;18.556;2023-10-13T00:00:24;13.33;;;4.50;;
20245;SDS011;10281;54.406;18.556;2023-10-13T00:02:54;12.30;;;4.63;;
20245;SDS011;10281;54.406;18.556;2023-10-13T00:05:21;10.27;;;3.27;;
20245;SDS011;10281;54.406;18.556;2023-10-13T00:07:50;11.83;;;3.40;;
20245;SDS011;10281;54.406;18.556;2023-10-13T00:10:16;13.53;;;4.00;;
20245;SDS011;10281;54.406;18.556;2023-10-13T00:12:44;12.53;;;3.93;;
20245;SDS011;10281;54.406;18.556;2023-10-13T00:15:16;11.73;;;4.30;;
20245;SDS011;10281;54.406;18.556;2023-10-13T00:17:45;13.13;;;4.30;;
20245;SDS011;10281;54.406;18.556;2023-10-13T00:20:12;10.03;;;2.80;;
20245;SDS011;10281;54.406;18.556;2023-10-13T00:22:41;6.67;;;3.17;;
20245;SDS011;10281;54.406;18.556;2023-10-13T00:25:08;9.40;;;3.57;;
20245;SDS011;10281;54.406;18.556;2023-10-13T00:27:36;10.40;;;4.10;;
20245;SDS011;10281;54.406;18.556;2023-10-13T00:30:06;12.70;;;4.37;;
20245;SDS011;10281;54.406;18.556;2023-10-13T00:32:39;11.93;;;3.87;;
20245;SDS011;10281;54.406;18.556;2023-10-13T00:35:09;12.47;;;4.07;;
20245;SDS011;10281;54.406;18.556;2023-10-13T00:37:39;8.13;;;3.80;;
20245;SDS011;10281;54.406;18.556;2023-10-13T00:40:09;10.97;;;4.40;;
20245;SDS011;10281;54.406;18.556;2023-10-13T00:42:41;12.20;;;4.17;;
20245;SDS011;10281;54.406;18.556;2023-10-13T00:45:15;8.73;;;3.60;;
20245;SDS011;10281;54.406;18.556;2023-10-13T00:47:43;11.33;;;4.07;;
20245;SDS011;10281;54.406;18.556;2023-10-13T00:50:15;10.77;;;3.33;;
20245;SDS011;10281;54.406;18.556;2023-10-13T00:52:44;9.57;;;3.70;;
20245;SDS011;10281;54.406;18.556;2023-10-13T00:55:14;10.40;;;3.80;;
20245;SDS011;10281;54.406;18.556;2023-10-13T00:57:43;11.77;;;3.57;;
20245;SDS011;10281;54.406;18.556;2023-10-13T01:00:12;10.17;;;3.10;;
20245;SDS011;10281;54.406;18.556;2023-10-13T01:02:45;12.37;;;3.17;;
20245;SDS011;10281;54.406;18.556;2023-10-13T01:05:14;9.20;;;3.30;;
20245;SDS011;10281;54.406;18.556;2023-10-13T01:07:42;12.63;;;4.00;;
20245;SDS011;10281;54.406;18.556;2023-10-13T01:10:09;9.50;;;3.67;;
20245;SDS011;10281;54.406;18.556;2023-10-13T01:12:40;9.57;;;3.53;;
20245;SDS011;10281;54.406;18.556;2023-10-13T01:15:09;15.60;;;3.87;;
20245;SDS011;10281;54.406;18.556;2023-10-13T01:17:37;9.53;;;3.60;;
20245;SDS011;10281;54.406;18.556;2023-10-13T01:20:04;8.13;;;3.13;;
20245;SDS011;10281;54.406;18.556;2023-10-13T01:22:31;11.13;;;3.73;;
20245;SDS011;10281;54.406;18.556;2023-10-13T01:24:58;11.03;;;4.07;;
20245;SDS011;10281;54.406;18.556;2023-10-13T01:27:38;11.37;;;4.00;;
20245;SDS011;10281;54.406;18.556;2023-10-13T01:30:06;6.83;;;3.43;;
20245;SDS011;10281;54.406;18.556;2023-10-13T01:32:38;9.90;;;3.30;;
20245;SDS011;10281;54.406;18.556;2023-10-13T01:35:07;7.67;;;3.23;;
20245;SDS011;10281;54.406;18.556;2023-10-13T01:37:35;9.47;;;3.40;;
20245;SDS011;10281;54.406;18.556;2023-10-13T01:40:02;8.30;;;3.10;;
20245;SDS011;10281;54.406;18.556;2023-10-13T01:42:29;8.37;;;3.27;;
20245;SDS011;10281;54.406;18.556;2023-10-13T01:44:56;14.37;;;4.13;;
20245;SDS011;10281;54.406;18.556;2023-10-13T01:47:25;13.20;;;5.20;;
20245;SDS011;10281;54.406;18.556;2023-10-13T01:49:53;17.67;;;6.80;;
20245;SDS011;10281;54.406;18.556;2023-10-13T01:52:22;14.37;;;6.20;;
20245;SDS011;10281;54.406;18.556;2023-10-13T01:54:50;9.53;;;4.93;;
20245;SDS011;10281;54.406;18.556;2023-10-13T01:57:17;13.73;;;5.60;;
20245;SDS011;10281;54.406;18.556;2023-10-13T01:59:44;12.10;;;5.17;;
20245;SDS011;10281;54.406;18.556;2023-10-13T02:02:13;12.30;;;5.73;;
20245;SDS011;10281;54.406;18.556;2023-10-13T02:04:42;14.27;;;5.47;;
20245;SDS011;10281;54.406;18.556;2023-10-13T02:07:21;13.87;;;5.70;;
20245;SDS011;10281;54.406;18.556;2023-10-13T02:09:49;14.70;;;5.63;;
20245;SDS011;10281;54.406;18.556;2023-10-13T02:12:16;12.87;;;5.17;;
20245;SDS011;10281;54.406;18.556;2023-10-13T02:14:43;14.87;;;6.23;;
20245;SDS011;10281;54.406;18.556;2023-10-13T02:17:10;14.60;;;4.90;;
20245;SDS011;10281;54.406;18.556;2023-10-13T02:19:39;12.17;;;4.30;;
20245;SDS011;10281;54.406;18.556;2023-10-13T02:22:08;11.33;;;3.63;;
20245;SDS011;10281;54.406;18.556;2023-10-13T02:24:36;10.80;;;4.03;;
20245;SDS011;10281;54.406;18.556;2023-10-13T02:27:08;8.93;;;3.33;;
20245;SDS011;10281;54.406;18.556;2023-10-13T02:29:37;11.00;;;3.00;;
20245;SDS011;10281;54.406;18.556;2023-10-13T02:32:05;10.87;;;3.40;;
20245;SDS011;10281;54.406;18.556;2023-10-13T02:34:34;10.03;;;3.40;;
20245;SDS011;10281;54.406;18.556;2023-10-13T02:37:01;8.40;;;3.03;;
20245;SDS011;10281;54.406;18.556;2023-10-13T02:39:28;9.90;;;3.00;;
20245;SDS011;10281;54.406;18.556;2023-10-13T02:41:56;8.93;;;3.53;;
20245;SDS011;10281;54.406;18.556;2023-10-13T02:44:23;11.50;;;3.53;;
20245;SDS011;10281;54.406;18.556;2023-10-13T02:46:55;14.37;;;3.13;;
20245;SDS011;10281;54.406;18.556;2023-10-13T02:49:23;12.60;;;3.20;;
20245;SDS011;10281;54.406;18.556;2023-10-13T02:51:52;13.23;;;3.57;;
20245;SDS011;10281;54.406;18.556;2023-10-13T02:54:21;9.37;;;2.77;;
20245;SDS011;10281;54.406;18.556;2023-10-13T02:56:48;10.17;;;2.70;;
20245;SDS011;10281;54.406;18.556;2023-10-13T02:59:17;9.87;;;2.93;;
20245;SDS011;10281;54.406;18.556;2023-10-13T03:01:46;7.60;;;2.50;;
20245;SDS011;10281;54.406;18.556;2023-10-13T03:04:12;10.03;;;3.17;;
20245;SDS011;10281;54.406;18.556;2023-10-13T03:06:39;7.80;;;2.93;;
20245;SDS011;10281;54.406;18.556;2023-10-13T03:09:07;7.03;;;2.60;;
20245;SDS011;10281;54.406;18.556;2023-10-13T03:11:41;8.30;;;2.40;;
20245;SDS011;10281;54.406;18.556;2023-10-13T03:14:11;7.40;;;3.17;;
20245;SDS011;10281;54.406;18.556;2023-10-13T03:16:40;9.17;;;2.50;;
20245;SDS011;10281;54.406;18.556;2023-10-13T03:19:06;8.00;;;2.80;;
20245;SDS011;10281;54.406;18.556;2023-10-13T03:21:35;8.33;;;2.73;;
20245;SDS011;10281;54.406;18.556;2023-10-13T03:24:02;4.93;;;2.93;;
20245;SDS011;10281;54.406;18.556;2023-10-13T03:26:32;7.43;;;2.43;;
20245;SDS011;10281;54.406;18.556;2023-10-13T03:29:02;7.13;;;2.87;;
20245;SDS011;10281;54.406;18.556;2023-10-13T03:31:31;9.77;;;3.20;;
20245;SDS011;10281;54.406;18.556;2023-10-13T03:34:00;6.93;;;3.10;;
20245;SDS011;10281;54.406;18.556;2023-10-13T03:36:27;7.37;;;3.07;;
20245;SDS011;10281;54.406;18.556;2023-10-13T03:38:59;9.90;;;3.27;;
20245;SDS011;10281;54.406;18.556;2023-10-13T03:41:25;6.70;;;2.40;;
20245;SDS011;10281;54.406;18.556;2023-10-13T03:43:54;7.17;;;2.77;;
20245;SDS011;10281;54.406;18.556;2023-10-13T03:46:23;5.80;;;2.40;;
20245;SDS011;10281;54.406;18.556;2023-10-13T03:48:49;7.47;;;2.63;;
20245;SDS011;10281;54.406;18.556;2023-10-13T03:51:19;7.70;;;2.50;;
20245;SDS011;10281;54.406;18.556;2023-10-13T03:53:46;6.50;;;2.50;;
20245;SDS011;10281;54.406;18.556;2023-10-13T03:56:22;5.47;;;2.83;;
20245;SDS011;10281;54.406;18.556;2023-10-13T03:58:52;9.53;;;3.33;;
20245;SDS011;10281;54.406;18.556;2023-10-13T04:01:20;8.07;;;3.50;;
20245;SDS011;10281;54.406;18.556;2023-10-13T04:03:49;9.83;;;3.73;;
20245;SDS011;10281;54.406;18.556;2023-10-13T04:06:22;7.03;;;3.73;;
20245;SDS011;10281;54.406;18.556;2023-10-13T04:09:07;7.10;;;3.30;;
20245;SDS011;10281;54.406;18.556;2023-10-13T04:11:39;10.47;;;3.47;;
20245;SDS011;10281;54.406;18.556;2023-10-13T04:14:11;8.77;;;3.70;;
20245;SDS011;10281;54.406;18.556;2023-10-13T04:16:44;7.87;;;3.73;;
20245;SDS011;10281;54.406;18.556;2023-10-13T04:19:17;8.50;;;3.83;;
20245;SDS011;10281;54.406;18.556;2023-10-13T04:21:47;8.60;;;3.60;;
20245;SDS011;10281;54.406;18.556;2023-10-13T04:24:20;6.40;;;4.23;;
20245;SDS011;10281;54.406;18.556;2023-10-13T04:27:06;7.50;;;4.37;;
20245;SDS011;10281;54.406;18.556;2023-10-13T04:29:49;8.60;;;5.10;;
20245;SDS011;10281;54.406;18.556;2023-10-13T04:32:19;9.73;;;4.73;;
20245;SDS011;10281;54.406;18.556;2023-10-13T04:34:52;8.00;;;3.53;;
20245;SDS011;10281;54.406;18.556;2023-10-13T04:37:20;11.97;;;4.43;;
20245;SDS011;10281;54.406;18.556;2023-10-13T04:39:58;8.80;;;4.00;;
20245;SDS011;10281;54.406;18.556;2023-10-13T04:42:29;11.57;;;5.00;;
20245;SDS011;10281;54.406;18.556;2023-10-13T04:45:01;22.27;;;12.43;;
20245;SDS011;10281;54.406;18.556;2023-10-13T04:47:30;20.33;;;10.80;;
20245;SDS011;10281;54.406;18.556;2023-10-13T04:49:58;14.33;;;6.77;;
20245;SDS011;10281;54.406;18.556;2023-10-13T04:52:27;10.40;;;4.70;;
20245;SDS011;10281;54.406;18.556;2023-10-13T04:54:59;9.80;;;3.93;;
20245;SDS011;10281;54.406;18.556;2023-10-13T04:57:28;9.37;;;3.10;;
20245;SDS011;10281;54.406;18.556;2023-10-13T05:00:03;9.43;;;3.80;;
20245;SDS011;10281;54.406;18.556;2023-10-13T05:02:40;5.80;;;3.37;;
20245;SDS011;10281;54.406;18.556;2023-10-13T05:05:14;9.30;;;4.20;;
20245;SDS011;10281;54.406;18.556;2023-10-13T05:07:59;9.60;;;4.27;;
20245;SDS011;10281;54.406;18.556;2023-10-13T05:10:32;11.47;;;3.93;;
20245;SDS011;10281;54.406;18.556;2023-10-13T05:13:06;8.03;;;3.70;;
20245;SDS011;10281;54.406;18.556;2023-10-13T05:15:43;8.13;;;3.17;;
20245;SDS011;10281;54.406;18.556;2023-10-13T05:18:15;7.60;;;3.60;;
20245;SDS011;10281;54.406;18.556;2023-10-13T05:20:48;9.03;;;3.30;;
20245;SDS011;10281;54.406;18.556;2023-10-13T05:23:20;8.20;;;2.93;;
20245;SDS011;10281;54.406;18.556;2023-10-13T05:25:52;9.23;;;3.03;;
20245;SDS011;10281;54.406;18.556;2023-10-13T05:28:25;10.07;;;3.33;;
20245;SDS011;10281;54.406;18.556;2023-10-13T05:30:59;7.20;;;3.20;;
20245;SDS011;10281;54.406;18.556;2023-10-13T05:33:31;11.97;;;3.30;;
20245;SDS011;10281;54.406;18.556;2023-10-13T05:36:08;9.50;;;3.40;;
20245;SDS011;10281;54.406;18.556;2023-10-13T05:38:42;6.43;;;2.77;;
20245;SDS011;10281;54.406;18.556;2023-10-13T05:41:14;6.50;;;2.60;;
20245;SDS011;10281;54.406;18.556;2023-10-13T05:43:48;12.33;;;3.23;;
20245;SDS011;10281;54.406;18.556;2023-10-13T05:46:20;9.37;;;2.93;;
20245;SDS011;10281;54.406;18.556;2023-10-13T05:48:58;10.07;;;2.90;;
20245;SDS011;10281;54.406;18.556;2023-10-13T05:51:41;6.57;;;2.33;;
20245;SDS011;10281;54.406;18.556;2023-10-13T05:54:16;7.67;;;2.87;;
20245;SDS011;10281;54.406;18.556;2023-10-13T05:56:57;9.90;;;2.83;;
20245;SDS011;10281;54.406;18.556;2023-10-13T05:59:30;8.80;;;3.40;;
20245;SDS011;10281;54.406;18.556;2023-10-13T06:02:03;9.13;;;3.00;;
20245;SDS011;10281;54.406;18.556;2023-10-13T06:04:35;6.17;;;2.63;;
20245;SDS011;10281;54.406;18.556;2023-10-13T06:07:07;6.77;;;3.00;;
20245;SDS011;10281;54.406;18.556;2023-10-13T06:09:40;5.73;;;3.10;;
20245;SDS011;10281;54.406;18.556;2023-10-13T06:12:12;9.40;;;3.00;;
20245;SDS011;10281;54.406;18.556;2023-10-13T06:14:45;8.30;;;3.70;;
20245;SDS011;10281;54.406;18.556;2023-10-13T06:17:18;9.23;;;3.50;;
20245;SDS011;10281;54.406;18.556;2023-10-13T06:19:50;11.87;;;3.50;;
20245;SDS011;10281;54.406;18.556;2023-10-13T06:22:23;8.73;;;3.40;;
20245;SDS011;10281;54.406;18.556;2023-10-13T06:24:55;9.57;;;3.07;;
20245;SDS011;10281;54.406;18.556;2023-10-13T06:27:27;10.17;;;3.60;;
20245;SDS011;10281;54.406;18.556;2023-10-13T06:30:00;12.90;;;3.13;;
20245;SDS011;10281;54.406;18.556;2023-10-13T06:32:28;10.33;;;3.10;;
20245;SDS011;10281;54.406;18.556;2023-10-13T06:34:55;8.90;;;3.30;;
20245;SDS011;10281;54.406;18.556;2023-10-13T06:37:24;7.60;;;3.43;;
20245;SDS011;10281;54.406;18.556;2023-10-13T06:39:52;7.80;;;3.10;;
20245;SDS011;10281;54.406;18.556;2023-10-13T06:42:23;12.73;;;3.67;;
20245;SDS011;10281;54.406;18.556;2023-10-13T06:44:51;10.80;;;4.17;;
20245;SDS011;10281;54.406;18.556;2023-10-13T06:47:20;8.43;;;4.20;;
20245;SDS011;10281;54.406;18.556;2023-10-13T06:49:50;8.67;;;4.23;;
20245;SDS011;10281;54.406;18.556;2023-10-13T06:52:20;10.67;;;4.47;;
20245;SDS011;10281;54.406;18.556;2023-10-13T06:54:50;11.37;;;4.83;;
20245;SDS011;10281;54.406;18.556;2023-10-13T06:57:17;8.40;;;4.60;;
20245;SDS011;10281;54.406;18.556;2023-10-13T06:59:47;11.10;;;4.20;;
20245;SDS011;10281;54.406;18.556;2023-10-13T07:02:14;6.73;;;3.30;;
20245;SDS011;10281;54.406;18.556;2023-10-13T07:04:47;10.30;;;3.07;;
20245;SDS011;10281;54.406;18.556;2023-10-13T07:07:16;7.87;;;3.63;;
20245;SDS011;10281;54.406;18.556;2023-10-13T07:09:43;7.30;;;3.23;;
20245;SDS011;10281;54.406;18.556;2023-10-13T07:12:17;10.93;;;3.30;;
20245;SDS011;10281;54.406;18.556;2023-10-13T07:14:47;8.20;;;3.93;;
20245;SDS011;10281;54.406;18.556;2023-10-13T07:17:18;7.30;;;3.13;;
20245;SDS011;10281;54.406;18.556;2023-10-13T07:19:50;7.63;;;4.10;;
20245;SDS011;10281;54.406;18.556;2023-10-13T07:22:19;11.30;;;4.10;;
20245;SDS011;10281;54.406;18.556;2023-10-13T07:24:46;11.73;;;4.03;;
20245;SDS011;10281;54.406;18.556;2023-10-13T07:27:16;9.10;;;4.33;;
20245;SDS011;10281;54.406;18.556;2023-10-13T07:29:49;8.43;;;3.57;;
20245;SDS011;10281;54.406;18.556;2023-10-13T07:32:20;9.83;;;4.03;;
20245;SDS011;10281;54.406;18.556;2023-10-13T07:34:48;15.93;;;4.10;;
20245;SDS011;10281;54.406;18.556;2023-10-13T07:37:15;8.40;;;3.73;;
20245;SDS011;10281;54.406;18.556;2023-10-13T07:39:41;11.43;;;4.53;;
20245;SDS011;10281;54.406;18.556;2023-10-13T07:42:09;12.30;;;4.63;;
20245;SDS011;10281;54.406;18.556;2023-10-13T07:44:43;9.90;;;4.60;;
20245;SDS011;10281;54.406;18.556;2023-10-13T07:47:12;11.50;;;5.03;;
20245;SDS011;10281;54.406;18.556;2023-10-13T07:49:40;8.33;;;3.80;;
20245;SDS011;10281;54.406;18.556;2023-10-13T07:52:08;9.03;;;3.60;;
20245;SDS011;10281;54.406;18.556;2023-10-13T07:54:57;14.53;;;4.33;;
20245;SDS011;10281;54.406;18.556;2023-10-13T07:57:26;12.03;;;3.20;;
20245;SDS011;10281;54.406;18.556;2023-10-13T07:59:55;8.27;;;3.30;;
20245;SDS011;10281;54.406;18.556;2023-10-13T08:02:24;7.83;;;3.10;;
20245;SDS011;10281;54.406;18.556;2023-10-13T08:04:56;9.30;;;3.33;;
20245;SDS011;10281;54.406;18.556;2023-10-13T08:07:23;11.77;;;3.57;;
20245;SDS011;10281;54.406;18.556;2023-10-13T08:09:52;5.30;;;2.90;;
20245;SDS011;10281;54.406;18.556;2023-10-13T08:12:18;11.73;;;2.97;;
20245;SDS011;10281;54.406;18.556;2023-10-13T08:14:47;10.70;;;3.00;;
20245;SDS011;10281;54.406;18.556;2023-10-13T08:17:14;5.93;;;2.03;;
20245;SDS011;10281;54.406;18.556;2023-10-13T08:19:41;6.00;;;2.10;;
20245;SDS011;10281;54.406;18.556;2023-10-13T08:22:10;7.40;;;2.33;;
20245;SDS011;10281;54.406;18.556;2023-10-13T08:24:49;5.47;;;2.37;;
20245;SDS011;10281;54.406;18.556;2023-10-13T08:27:24;10.47;;;2.33;;
20245;SDS011;10281;54.406;18.556;2023-10-13T08:30:03;11.57;;;3.13;;
20245;SDS011;10281;54.406;18.556;2023-10-13T08:32:36;7.27;;;2.23;;
20245;SDS011;10281;54.406;18.556;2023-10-13T08:35:05;8.27;;;2.43;;
20245;SDS011;10281;54.406;18.556;2023-10-13T08:37:35;9.10;;;2.27;;
20245;SDS011;10281;54.406;18.556;2023-10-13T08:40:08;9.10;;;2.20;;
20245;SDS011;10281;54.406;18.556;2023-10-13T08:42:41;8.80;;;2.27;;
20245;SDS011;10281;54.406;18.556;2023-10-13T08:45:25;7.20;;;2.10;;
20245;SDS011;10281;54.406;18.556;2023-10-13T08:48:11;6.70;;;1.73;;
20245;SDS011;10281;54.406;18.556;2023-10-13T08:50:46;8.50;;;2.50;;
20245;SDS011;10281;54.406;18.556;2023-10-13T08:53:19;7.50;;;2.00;;
20245;SDS011;10281;54.406;18.556;2023-10-13T08:55:56;5.33;;;2.17;;
20245;SDS011;10281;54.406;18.556;2023-10-13T08:58:30;10.93;;;2.40;;
20245;SDS011;10281;54.406;18.556;2023-10-13T09:01:03;9.30;;;2.10;;
20245;SDS011;10281;54.406;18.556;2023-10-13T09:03:38;8.97;;;2.27;;
20245;SDS011;10281;54.406;18.556;2023-10-13T09:06:10;5.47;;;2.00;;
20245;SDS011;10281;54.406;18.556;2023-10-13T09:08:40;6.83;;;2.40;;
20245;SDS011;10281;54.406;18.556;2023-10-13T09:11:30;4.20;;;1.97;;
20245;SDS011;10281;54.406;18.556;2023-10-13T09:14:00;14.13;;;3.40;;
20245;SDS011;10281;54.406;18.556;2023-10-13T09:16:28;6.50;;;2.00;;
20245;SDS011;10281;54.406;18.556;2023-10-13T09:19:02;7.13;;;2.10;;
20245;SDS011;10281;54.406;18.556;2023-10-13T09:21:38;6.57;;;2.60;;
20245;SDS011;10281;54.406;18.556;2023-10-13T09:24:13;6.23;;;2.70;;
20245;SDS011;10281;54.406;18.556;2023-10-13T09:26:46;5.27;;;2.03;;
20245;SDS011;10281;54.406;18.556;2023-10-13T09:29:15;8.10;;;2.43;;
20245;SDS011;10281;54.406;18.556;2023-10-13T09:31:46;6.40;;;2.30;;
20245;SDS011;10281;54.406;18.556;2023-10-13T09:34:20;8.87;;;2.70;;
20245;SDS011;10281;54.406;18.556;2023-10-13T09:36:49;8.53;;;2.80;;
20245;SDS011;10281;54.406;18.556;2023-10-13T09:39:18;5.63;;;2.47;;
20245;SDS011;10281;54.406;18.556;2023-10-13T09:41:51;7.57;;;2.63;;
20245;SDS011;10281;54.406;18.556;2023-10-13T09:44:19;11.07;;;3.00;;
20245;SDS011;10281;54.406;18.556;2023-10-13T09:46:47;8.27;;;3.10;;
20245;SDS011;10281;54.406;18.556;2023-10-13T09:49:14;6.07;;;3.03;;
20245;SDS011;10281;54.406;18.556;2023-10-13T09:51:50;7.43;;;2.67;;
20245;SDS011;10281;54.406;18.556;2023-10-13T09:54:24;7.93;;;2.23;;
20245;SDS011;10281;54.406;18.556;2023-10-13T09:56:54;7.40;;;2.60;;
20245;SDS011;10281;54.406;18.556;2023-10-13T10:02:21;5.53;;;2.43;;
20245;SDS011;10281;54.406;18.556;2023-10-13T10:04:52;8.77;;;3.20;;
20245;SDS011;10281;54.406;18.556;2023-10-13T10:07:24;7.20;;;2.80;;
20245;SDS011;10281;54.406;18.556;2023-10-13T10:09:56;8.03;;;2.93;;
20245;SDS011;10281;54.406;18.556;2023-10-13T10:12:35;6.17;;;2.57;;
20245;SDS011;10281;54.406;18.556;2023-10-13T10:15:06;6.73;;;2.90;;
20245;SDS011;10281;54.406;18.556;2023-10-13T10:17:56;7.90;;;2.90;;
20245;SDS011;10281;54.406;18.556;2023-10-13T10:20:29;8.17;;;2.77;;
20245;SDS011;10281;54.406;18.556;2023-10-13T10:23:01;9.83;;;3.00;;
20245;SDS011;10281;54.406;18.556;2023-10-13T10:25:29;6.83;;;2.23;;
20245;SDS011;10281;54.406;18.556;2023-10-13T10:28:02;6.87;;;2.37;;
20245;SDS011;10281;54.406;18.556;2023-10-13T10:30:31;10.57;;;3.00;;
20245;SDS011;10281;54.406;18.556;2023-10-13T10:33:00;10.10;;;3.47;;
20245;SDS011;10281;54.406;18.556;2023-10-13T10:35:29;5.67;;;2.80;;
20245;SDS011;10281;54.406;18.556;2023-10-13T10:43:23;7.57;;;2.90;;
20245;SDS011;10281;54.406;18.556;2023-10-13T10:45:53;6.33;;;2.43;;
20245;SDS011;10281;54.406;18.556;2023-10-13T10:48:22;10.93;;;3.00;;
20245;SDS011;10281;54.406;18.556;2023-10-13T10:50:51;8.13;;;2.47;;
20245;SDS011;10281;54.406;18.556;2023-10-13T10:53:20;7.23;;;2.20;;
20245;SDS011;10281;54.406;18.556;2023-10-13T10:55:48;6.60;;;2.23;;
20245;SDS011;10281;54.406;18.556;2023-10-13T10:58:15;6.83;;;2.57;;
20245;SDS011;10281;54.406;18.556;2023-10-13T11:00:47;8.63;;;2.53;;
20245;SDS011;10281;54.406;18.556;2023-10-13T11:03:15;5.70;;;2.53;;
20245;SDS011;10281;54.406;18.556;2023-10-13T11:05:44;4.63;;;2.30;;
20245;SDS011;10281;54.406;18.556;2023-10-13T11:10:55;7.33;;;2.40;;
20245;SDS011;10281;54.406;18.556;2023-10-13T11:13:21;6.00;;;2.70;;
20245;SDS011;10281;54.406;18.556;2023-10-13T11:15:48;6.13;;;2.10;;
20245;SDS011;10281;54.406;18.556;2023-10-13T11:18:16;6.13;;;2.27;;
20245;SDS011;10281;54.406;18.556;2023-10-13T11:20:49;9.67;;;3.33;;
20245;SDS011;10281;54.406;18.556;2023-10-13T11:23:20;5.87;;;2.37;;
20245;SDS011;10281;54.406;18.556;2023-10-13T11:25:56;6.33;;;2.60;;
20245;SDS011;10281;54.406;18.556;2023-10-13T11:28:24;5.67;;;2.00;;
20245;SDS011;10281;54.406;18.556;2023-10-13T11:30:55;7.77;;;2.70;;
20245;SDS011;10281;54.406;18.556;2023-10-13T11:33:26;6.13;;;2.60;;
20245;SDS011;10281;54.406;18.556;2023-10-13T11:35:54;7.90;;;2.53;;
20245;SDS011;10281;54.406;18.556;2023-10-13T11:38:23;5.57;;;2.63;;
20245;SDS011;10281;54.406;18.556;2023-10-13T11:40:58;11.10;;;2.60;;
20245;SDS011;10281;54.406;18.556;2023-10-13T11:43:38;14.03;;;3.30;;
20245;SDS011;10281;54.406;18.556;2023-10-13T11:46:24;5.07;;;2.83;;
20245;SDS011;10281;54.406;18.556;2023-10-13T11:48:57;7.60;;;3.47;;
20245;SDS011;10281;54.406;18.556;2023-10-13T11:51:26;7.53;;;3.17;;
20245;SDS011;10281;54.406;18.556;2023-10-13T11:53:54;7.30;;;3.37;;
20245;SDS011;10281;54.406;18.556;2023-10-13T11:56:21;9.00;;;3.23;;
20245;SDS011;10281;54.406;18.556;2023-10-13T11:58:48;7.33;;;3.60;;
20245;SDS011;10281;54.406;18.556;2023-10-13T12:01:15;7.70;;;3.60;;
20245;SDS011;10281;54.406;18.556;2023-10-13T12:03:49;9.20;;;3.50;;
20245;SDS011;10281;54.406;18.556;2023-10-13T12:06:21;7.10;;;3.60;;
20245;SDS011;10281;54.406;18.556;2023-10-13T12:08:51;11.30;;;4.23;;
20245;SDS011;10281;54.406;18.556;2023-10-13T12:11:18;8.20;;;3.97;;
20245;SDS011;10281;54.406;18.556;2023-10-13T12:13:50;7.97;;;3.93;;
20245;SDS011;10281;54.406;18.556;2023-10-13T12:16:17;9.87;;;3.77;;
20245;SDS011;10281;54.406;18.556;2023-10-13T12:18:44;8.40;;;4.03;;
20245;SDS011;10281;54.406;18.556;2023-10-13T12:21:13;8.00;;;4.10;;
20245;SDS011;10281;54.406;18.556;2023-10-13T12:23:42;9.07;;;4.40;;
20245;SDS011;10281;54.406;18.556;2023-10-13T12:26:10;9.93;;;5.07;;
20245;SDS011;10281;54.406;18.556;2023-10-13T12:28:39;11.07;;;4.97;;
20245;SDS011;10281;54.406;18.556;2023-10-13T12:31:07;11.73;;;5.40;;
20245;SDS011;10281;54.406;18.556;2023-10-13T12:33:36;11.03;;;5.37;;
20245;SDS011;10281;54.406;18.556;2023-10-13T12:36:03;13.77;;;5.73;;
20245;SDS011;10281;54.406;18.556;2023-10-13T12:38:37;11.13;;;5.90;;
20245;SDS011;10281;54.406;18.556;2023-10-13T12:41:09;10.20;;;5.77;;
20245;SDS011;10281;54.406;18.556;2023-10-13T12:43:42;12.20;;;5.50;;
20245;SDS011;10281;54.406;18.556;2023-10-13T12:46:14;11.30;;;6.40;;
20245;SDS011;10281;54.406;18.556;2023-10-13T12:48:46;11.07;;;6.43;;
20245;SDS011;10281;54.406;18.556;2023-10-13T12:51:19;12.00;;;6.93;;
20245;SDS011;10281;54.406;18.556;2023-10-13T12:53:47;11.23;;;6.80;;
20245;SDS011;10281;54.406;18.556;2023-10-13T12:56:15;12.17;;;6.50;;
20245;SDS011;10281;54.406;18.556;2023-10-13T12:58:42;14.20;;;7.03;;
20245;SDS011;10281;54.406;18.556;2023-10-13T13:01:13;12.87;;;6.70;;
20245;SDS011;10281;54.406;18.556;2023-10-13T13:03:40;11.87;;;6.43;;
20245;SDS011;10281;54.406;18.556;2023-10-13T13:06:08;15.17;;;6.90;;
20245;SDS011;10281;54.406;18.556;2023-10-13T13:08:39;12.17;;;6.70;;
20245;SDS011;10281;54.406;18.556;2023-10-13T13:11:07;12.77;;;7.07;;
20245;SDS011;10281;54.406;18.556;2023-10-13T13:13:34;11.50;;;6.70;;
20245;SDS011;10281;54.406;18.556;2023-10-13T13:16:00;14.90;;;6.97;;
20245;SDS011;10281;54.406;18.556;2023-10-13T13:18:29;12.77;;;7.50;;
20245;SDS011;10281;54.406;18.556;2023-10-13T13:20:55;16.73;;;7.37;;
20245;SDS011;10281;54.406;18.556;2023-10-13T13:23:22;10.90;;;7.40;;
20245;SDS011;10281;54.406;18.556;2023-10-13T13:25:52;12.07;;;7.57;;
20245;SDS011;10281;54.406;18.556;2023-10-13T13:28:19;11.97;;;7.43;;
20245;SDS011;10281;54.406;18.556;2023-10-13T13:30:47;14.70;;;8.70;;
20245;SDS011;10281;54.406;18.556;2023-10-13T13:33:16;14.83;;;8.90;;
20245;SDS011;10281;54.406;18.556;2023-10-13T13:35:45;15.20;;;9.33;;
20245;SDS011;10281;54.406;18.556;2023-10-13T13:38:13;15.27;;;9.43;;
20245;SDS011;10281;54.406;18.556;2023-10-13T13:40:44;15.70;;;9.53;;
20245;SDS011;10281;54.406;18.556;2023-10-13T13:43:13;19.93;;;10.87;;
20245;SDS011;10281;54.406;18.556;2023-10-13T13:45:41;17.37;;;10.47;;
20245;SDS011;10281;54.406;18.556;2023-10-13T13:48:11;19.53;;;10.60;;
20245;SDS011;10281;54.406;18.556;2023-10-13T13:50:39;17.00;;;10.90;;
20245;SDS011;10281;54.406;18.556;2023-10-13T13:53:06;21.40;;;11.67;;
20245;SDS011;10281;54.406;18.556;2023-10-13T13:55:35;20.90;;;11.47;;
20245;SDS011;10281;54.406;18.556;2023-10-13T13:58:04;18.23;;;11.63;;
20245;SDS011;10281;54.406;18.556;2023-10-13T14:00:32;19.70;;;11.90;;
20245;SDS011;10281;54.406;18.556;2023-10-13T14:03:04;15.60;;;10.90;;
20245;SDS011;10281;54.406;18.556;2023-10-13T14:05:33;17.73;;;10.97;;
20245;SDS011;10281;54.406;18.556;2023-10-13T14:08:00;19.53;;;11.60;;
20245;SDS011;10281;54.406;18.556;2023-10-13T14:10:26;19.97;;;12.20;;
20245;SDS011;10281;54.406;18.556;2023-10-13T14:13:01;18.07;;;11.70;;
20245;SDS011;10281;54.406;18.556;2023-10-13T14:15:34;20.30;;;12.00;;
20245;SDS011;10281;54.406;18.556;2023-10-13T14:18:04;19.40;;;12.03;;
20245;SDS011;10281;54.406;18.556;2023-10-13T14:20:32;20.23;;;12.40;;
20245;SDS011;10281;54.406;18.556;2023-10-13T14:23:01;23.60;;;13.13;;
20245;SDS011;10281;54.406;18.556;2023-10-13T14:25:30;18.50;;;11.77;;
20245;SDS011;10281;54.406;18.556;2023-10-13T14:27:58;20.57;;;13.07;;
20245;SDS011;10281;54.406;18.556;2023-10-13T14:30:25;20.90;;;13.67;;
20245;SDS011;10281;54.406;18.556;2023-10-13T14:32:53;20.37;;;12.73;;
20245;SDS011;10281;54.406;18.556;2023-10-13T14:35:22;22.30;;;14.23;;
20245;SDS011;10281;54.406;18.556;2023-10-13T14:37:52;20.33;;;12.97;;
20245;SDS011;10281;54.406;18.556;2023-10-13T14:40:19;21.27;;;13.73;;
20245;SDS011;10281;54.406;18.556;2023-10-13T14:42:47;22.13;;;13.73;;
20245;SDS011;10281;54.406;18.556;2023-10-13T14:45:14;21.00;;;14.50;;
20245;SDS011;10281;54.406;18.556;2023-10-13T14:47:42;20.93;;;14.00;;
20245;SDS011;10281;54.406;18.556;2023-10-13T14:50:10;23.73;;;15.77;;
20245;SDS011;10281;54.406;18.556;2023-10-13T14:52:42;21.60;;;15.23;;
20245;SDS011;10281;54.406;18.556;2023-10-13T14:55:09;19.50;;;14.27;;
20245;SDS011;10281;54.406;18.556;2023-10-13T14:57:37;21.27;;;15.53;;